Welcome to Northern Hawkes Bay. New Zealand.
PWS Header
      nz Flag



Hit Counter


W3C Valid W3C Valid logo


    Wairoa

Select any of the Stations below to visit their websites.










Historic Data from Weather Underground
Select the location of interest below. Wairoa is the default. Please have patience, this Data is slow to load in.
Northern Hawkes Bay Historical Data
Daily Summary for March 13, 2017 Units:  Metric    English   Both
« Previous Day
Next Day »
Daily Weekly Monthly Yearly Custom
  High: Low: Average:
Temperature: 23.3 °C 15.6 °C 19.4 °C
Dew Point: 19.8 °C 15.4 °C 17.5 °C
Humidity: 99% 74% 89%
Wind Speed: 18.3km/h 0.0km/h 3.8km/h
Wind Gust: 24.5km/h - -
Wind- - South
Pressure: 1014.4 hPa 1005.3 hPa -
Precipitation: 0.0 mm    
Historical Graphs
 
 
Tabular Data for March 13, 2017
Time Temperature Dew Point Pressure Wind Wind Speed Wind Gust Humidity Rainfall Rate (Hourly) solar
00:00 17.5 °C 16.7 °C 1005.3 hPa SSW 5.0 km/h 12.2 km/h 95% 0.0 mm 0 W/m2
00:06 17.5 °C 16.7 °C 1005.3 hPa SSW 2.6 km/h 12.2 km/h 95% 0.0 mm 0 W/m2
00:11 17.5 °C 16.7 °C 1005.3 hPa Calm   7.2 km/h 95% 0.0 mm 0 W/m2
00:16 17.4 °C 16.6 °C 1005.3 hPa Calm   1.1 km/h 95% 0.0 mm 0 W/m2
00:35 17.4 °C 16.6 °C 1005.6 hPa Calm     95% 0.0 mm 0 W/m2
00:40 17.4 °C 16.6 °C 1005.6 hPa Calm     95% 0.0 mm 0 W/m2
00:45 17.4 °C 16.8 °C 1005.6 hPa Calm     96% 0.0 mm 0 W/m2
00:50 17.4 °C 16.8 °C 1005.6 hPa Calm     96% 0.0 mm 0 W/m2
00:55 17.4 °C 16.8 °C 1005.6 hPa Calm     96% 0.0 mm 0 W/m2
01:00 17.4 °C 16.8 °C 1005.6 hPa Calm     96% 0.0 mm 0 W/m2
01:05 17.4 °C 16.8 °C 1006.0 hPa Calm     96% 0.0 mm 0 W/m2
01:10 17.4 °C 16.8 °C 1006.0 hPa Calm     96% 0.0 mm 0 W/m2
01:15 17.4 °C 16.8 °C 1006.0 hPa Calm     96% 0.0 mm 0 W/m2
01:20 17.4 °C 16.8 °C 1006.0 hPa Calm     96% 0.0 mm 0 W/m2
01:25 17.4 °C 16.8 °C 1006.0 hPa Calm     96% 0.0 mm 0 W/m2
01:30 17.4 °C 16.8 °C 1006.0 hPa Calm     96% 0.0 mm 0 W/m2
01:35 17.4 °C 16.9 °C 1006.0 hPa Calm     97% 0.0 mm 0 W/m2
01:40 17.4 °C 16.9 °C 1006.0 hPa Calm     97% 0.0 mm 0 W/m2
01:45 17.4 °C 16.9 °C 1006.3 hPa Calm     97% 0.0 mm 0 W/m2
01:50 17.4 °C 16.9 °C 1006.0 hPa Calm     97% 0.0 mm 0 W/m2
01:55 17.4 °C 16.9 °C 1006.0 hPa Calm     97% 0.0 mm 0 W/m2
02:00 17.3 °C 16.8 °C 1006.0 hPa Calm     97% 0.0 mm 0 W/m2
02:05 17.3 °C 16.8 °C 1006.0 hPa Calm     97% 0.0 mm 0 W/m2
02:10 17.3 °C 16.8 °C 1006.3 hPa Calm     97% 0.0 mm 0 W/m2
02:15 17.3 °C 16.8 °C 1006.3 hPa Calm     97% 0.0 mm 0 W/m2
02:20 17.3 °C 16.8 °C 1006.3 hPa Calm     97% 0.0 mm 0 W/m2
02:25 17.3 °C 16.8 °C 1006.7 hPa Calm     97% 0.0 mm 0 W/m2
02:30 17.3 °C 16.8 °C 1006.7 hPa Calm     97% 0.0 mm 0 W/m2
02:35 17.3 °C 16.8 °C 1006.7 hPa Calm     97% 0.0 mm 0 W/m2
02:40 17.3 °C 16.8 °C 1006.3 hPa Calm     97% 0.0 mm 0 W/m2
02:45 17.3 °C 16.8 °C 1006.3 hPa Calm     97% 0.0 mm 0 W/m2
02:50 17.2 °C 16.7 °C 1006.3 hPa Calm     97% 0.0 mm 0 W/m2
02:55 17.2 °C 16.7 °C 1006.3 hPa Calm     97% 0.0 mm 0 W/m2
03:00 17.1 °C 16.6 °C 1006.7 hPa Calm     97% 0.0 mm 0 W/m2
03:06 17.1 °C 16.6 °C 1006.7 hPa Calm     97% 0.0 mm 0 W/m2
03:11 17.0 °C 16.6 °C 1006.7 hPa Calm     97% 0.0 mm 0 W/m2
03:16 17.0 °C 16.6 °C 1006.7 hPa Calm     97% 0.0 mm 0 W/m2
03:21 16.9 °C 16.6 °C 1007.0 hPa Calm     98% 0.0 mm 0 W/m2
03:26 16.9 °C 16.6 °C 1007.0 hPa Calm     98% 0.0 mm 0 W/m2
03:31 16.8 °C 16.5 °C 1007.0 hPa Calm     98% 0.0 mm 0 W/m2
03:36 16.8 °C 16.5 °C 1007.0 hPa Calm     98% 0.0 mm 0 W/m2
03:41 16.8 °C 16.5 °C 1007.0 hPa Calm     98% 0.0 mm 0 W/m2
03:46 16.8 °C 16.5 °C 1007.0 hPa Calm     98% 0.0 mm 0 W/m2
06:31 16.5 °C 16.2 °C 1008.7 hPa Calm     98% 0.0 mm 0 W/m2
06:35 16.5 °C 16.2 °C 1009.0 hPa Calm     98% 0.0 mm 0 W/m2
06:41 16.4 °C 16.1 °C 1009.0 hPa Calm     98% 0.0 mm 0 W/m2
06:46 16.4 °C 16.1 °C 1009.0 hPa Calm     98% 0.0 mm 0 W/m2
06:51 16.3 °C 16.0 °C 1009.0 hPa Calm     98% 0.0 mm 0 W/m2
06:54 16.3 °C 16.0 °C 1009.0 hPa Calm     98% 0.0 mm 0 W/m2
06:58 16.3 °C 16.0 °C 1009.0 hPa NNW 2.6 km/h 7.2 km/h 98% 0.0 mm 0 W/m2
07:00 16.3 °C 16.0 °C 1009.0 hPa NNW 2.6 km/h 7.2 km/h 98% 0.0 mm 0 W/m2
07:05 16.2 °C 15.9 °C 1009.0 hPa Calm   7.2 km/h 98% 0.0 mm 2 W/m2
07:10 16.2 °C 15.9 °C 1009.0 hPa NNW 3.5 km/h 6.1 km/h 98% 0.0 mm 4 W/m2
07:15 16.2 °C 15.9 °C 1009.0 hPa Calm   8.7 km/h 98% 0.0 mm 7 W/m2
07:20 16.2 °C 15.9 °C 1009.4 hPa Calm   8.7 km/h 98% 0.0 mm 11 W/m2
07:25 16.1 °C 15.8 °C 1009.0 hPa Calm   2.6 km/h 98% 0.0 mm 16 W/m2
07:30 16.1 °C 15.8 °C 1009.4 hPa Calm   1.1 km/h 98% 0.0 mm 22 W/m2
07:35 16.1 °C 15.8 °C 1009.4 hPa Calm   1.1 km/h 98% 0.0 mm 26 W/m2
07:40 16.2 °C 15.9 °C 1009.7 hPa Calm     98% 0.0 mm 64 W/m2
07:45 16.3 °C 16.0 °C 1009.4 hPa Calm     98% 0.0 mm 49 W/m2
07:50 16.3 °C 16.0 °C 1009.7 hPa Calm     98% 0.0 mm 53 W/m2
07:55 16.2 °C 15.9 °C 1009.7 hPa Calm   2.6 km/h 98% 0.0 mm 63 W/m2
08:00 16.2 °C 15.9 °C 1009.7 hPa Calm   2.6 km/h 98% 0.0 mm 70 W/m2
08:05 16.3 °C 16.0 °C 1010.0 hPa North 2.6 km/h 3.5 km/h 98% 0.0 mm 74 W/m2
08:10 16.4 °C 16.1 °C 1010.0 hPa Calm   5.0 km/h 98% 0.0 mm 89 W/m2
08:15 16.6 °C 16.3 °C 1010.0 hPa Calm   5.0 km/h 98% 0.0 mm 109 W/m2
08:20 16.8 °C 16.5 °C 1010.0 hPa Calm   2.6 km/h 98% 0.0 mm 114 W/m2
08:25 17.2 °C 16.7 °C 1010.0 hPa Calm   2.6 km/h 97% 0.0 mm 201 W/m2
08:30 17.9 °C 17.4 °C 1010.0 hPa Calm     97% 0.0 mm 118 W/m2
08:35 18.4 °C 18.3 °C 1010.0 hPa Calm     99% 0.0 mm 77 W/m2
08:40 18.2 °C 18.1 °C 1010.0 hPa Calm     99% 0.0 mm 94 W/m2
08:45 18.2 °C 18.1 °C 1010.4 hPa Calm     99% 0.0 mm 247 W/m2
08:50 18.9 °C 18.8 °C 1010.4 hPa Calm     99% 0.0 mm 203 W/m2
08:55 19.7 °C 19.6 °C 1010.4 hPa Calm     99% 0.0 mm 200 W/m2
09:00 20.0 °C 19.8 °C 1010.4 hPa Calm     99% 0.0 mm 162 W/m2
09:05 20.1 °C 19.8 °C 1010.4 hPa Calm     98% 0.0 mm 294 W/m2
09:10 20.5 °C 19.5 °C 1010.7 hPa Calm     94% 0.0 mm 369 W/m2
09:17 21.4 °C 18.8 °C 1010.7 hPa ENE 1.1 km/h 7.2 km/h 85% 0.0 mm 347 W/m2
09:22 21.8 °C 18.4 °C 1010.7 hPa ESE 3.5 km/h 7.2 km/h 81% 0.0 mm 214 W/m2
09:26 21.6 °C 17.8 °C 1010.7 hPa SSE 1.1 km/h 7.2 km/h 79% 0.0 mm 148 W/m2
09:31 21.2 °C 17.6 °C 1010.7 hPa Calm   5.0 km/h 80% 0.0 mm 147 W/m2
09:37 20.8 °C 17.4 °C 1010.7 hPa Calm   5.0 km/h 81% 0.0 mm 190 W/m2
09:42 20.8 °C 17.8 °C 1010.7 hPa Calm   5.0 km/h 83% 0.0 mm 158 W/m2
09:46 20.9 °C 17.9 °C 1010.7 hPa Calm   3.5 km/h 83% 0.0 mm 170 W/m2
09:51 20.8 °C 17.8 °C 1010.7 hPa SE 2.6 km/h 5.0 km/h 83% 0.0 mm 172 W/m2
09:57 20.6 °C 17.8 °C 1011.1 hPa SSE 2.6 km/h 6.1 km/h 84% 0.0 mm 194 W/m2
10:01 20.7 °C 17.9 °C 1011.1 hPa SSE 5.0 km/h 9.7 km/h 84% 0.0 mm 354 W/m2
10:07 20.8 °C 18.0 °C 1011.1 hPa SSE 2.6 km/h 9.7 km/h 84% 0.0 mm 333 W/m2
10:11 21.2 °C 18.0 °C 1011.1 hPa SSE 2.6 km/h 9.7 km/h 82% 0.0 mm 513 W/m2
10:17 21.9 °C 18.3 °C 1011.1 hPa Calm   9.7 km/h 80% 0.0 mm 407 W/m2
10:22 21.9 °C 17.7 °C 1011.1 hPa Calm   6.1 km/h 77% 0.0 mm 282 W/m2
10:27 21.8 °C 18.0 °C 1011.1 hPa SE 3.5 km/h 7.2 km/h 79% 0.0 mm 394 W/m2
10:32 21.9 °C 17.7 °C 1011.1 hPa Calm   7.2 km/h 77% 0.0 mm 406 W/m2
10:36 21.9 °C 17.7 °C 1011.1 hPa SSE 5.0 km/h 7.2 km/h 77% 0.0 mm 560 W/m2
10:42 21.9 °C 17.7 °C 1011.1 hPa SSE 8.7 km/h 12.2 km/h 77% 0.0 mm 434 W/m2
10:46 22.2 °C 18.0 °C 1011.1 hPa Calm   12.2 km/h 77% 0.0 mm 551 W/m2
10:51 22.8 °C 17.9 °C 1011.1 hPa SSE 3.5 km/h 11.1 km/h 74% 0.0 mm 387 W/m2
10:57 23.1 °C 18.4 °C 1011.1 hPa SSE 6.1 km/h 9.7 km/h 75% 0.0 mm 344 W/m2
11:02 21.8 °C 17.4 °C 1011.1 hPa South 5.0 km/h 9.7 km/h 76% 0.0 mm 292 W/m2
11:08 21.4 °C 17.6 °C 1011.1 hPa South 5.0 km/h 9.7 km/h 79% 0.0 mm 295 W/m2
11:12 21.3 °C 17.7 °C 1011.1 hPa Calm   9.7 km/h 80% 0.0 mm 242 W/m2
11:17 21.3 °C 17.9 °C 1011.1 hPa South 6.1 km/h 8.7 km/h 81% 0.0 mm 231 W/m2
11:22 21.1 °C 17.9 °C 1011.1 hPa South 8.7 km/h 12.2 km/h 82% 0.0 mm 206 W/m2
11:27 20.8 °C 18.0 °C 1011.1 hPa SSW 7.2 km/h 12.2 km/h 84% 0.0 mm 379 W/m2
11:32 21.0 °C 18.0 °C 1011.1 hPa SSW 7.2 km/h 12.2 km/h 83% 0.0 mm 355 W/m2
11:38 21.1 °C 17.9 °C 1011.1 hPa South 6.1 km/h 11.1 km/h 82% 0.0 mm 530 W/m2
11:42 21.6 °C 18.4 °C 1011.4 hPa South 6.1 km/h 11.1 km/h 82% 0.0 mm 285 W/m2
11:48 22.3 °C 18.5 °C 1011.1 hPa SSW 6.1 km/h 8.7 km/h 79% 0.0 mm 362 W/m2
11:50 22.3 °C 17.9 °C 1011.1 hPa SSW 7.2 km/h 12.2 km/h 76% 0.0 mm 597 W/m2
11:53 22.1 °C 17.7 °C 1011.1 hPa South 5.0 km/h 12.2 km/h 76% 0.0 mm 779 W/m2
11:58 22.0 °C 17.8 °C 1011.1 hPa SSE 2.6 km/h 12.2 km/h 77% 0.0 mm 516 W/m2
12:02 22.1 °C 18.1 °C 1011.1 hPa South 3.5 km/h 12.2 km/h 78% 0.0 mm 749 W/m2
12:07 22.6 °C 18.8 °C 1011.1 hPa South 6.1 km/h 12.2 km/h 79% 0.0 mm 703 W/m2
12:13 23.0 °C 18.8 °C 1011.1 hPa South 3.5 km/h 9.7 km/h 77% 0.0 mm 703 W/m2
12:17 23.1 °C 18.7 °C 1011.4 hPa SSW 6.1 km/h 11.1 km/h 76% 0.0 mm 733 W/m2
12:22 22.6 °C 18.2 °C 1011.1 hPa South 9.7 km/h 15.8 km/h 76% 0.0 mm 734 W/m2
12:27 22.1 °C 18.1 °C 1011.1 hPa South 8.7 km/h 17.2 km/h 78% 0.0 mm 717 W/m2
12:32 22.1 °C 18.1 °C 1011.1 hPa South 9.7 km/h 17.2 km/h 78% 0.0 mm 728 W/m2
12:37 22.1 °C 18.1 °C 1011.1 hPa South 13.4 km/h 15.8 km/h 78% 0.0 mm 734 W/m2
12:42 21.9 °C 18.3 °C 1011.4 hPa South 9.7 km/h 15.8 km/h 80% 0.0 mm 736 W/m2
12:48 21.5 °C 17.7 °C 1011.1 hPa SSW 9.7 km/h 15.8 km/h 79% 0.0 mm 740 W/m2
12:52 21.4 °C 18.0 °C 1011.1 hPa SSW 11.1 km/h 15.8 km/h 81% 0.0 mm 744 W/m2
12:57 21.6 °C 18.2 °C 1011.1 hPa SSW 14.8 km/h 19.5 km/h 81% 0.0 mm 753 W/m2
13:02 21.6 °C 18.0 °C 1011.1 hPa SSW 8.7 km/h 19.5 km/h 80% 0.0 mm 758 W/m2
13:07 21.7 °C 18.1 °C 1011.1 hPa SSW 11.1 km/h 17.2 km/h 80% 0.0 mm 766 W/m2
13:12 21.9 °C 18.3 °C 1011.4 hPa SSW 12.2 km/h 17.2 km/h 80% 0.0 mm 769 W/m2
13:17 21.9 °C 18.1 °C 1011.1 hPa SSW 12.2 km/h 17.2 km/h 79% 0.0 mm 772 W/m2
13:22 21.9 °C 18.1 °C 1011.1 hPa SSW 9.7 km/h 17.2 km/h 79% 0.0 mm 779 W/m2
13:28 22.0 °C 18.0 °C 1011.1 hPa South 12.2 km/h 17.2 km/h 78% 0.0 mm 780 W/m2
13:32 22.0 °C 18.2 °C 1011.1 hPa South 12.2 km/h 18.3 km/h 79% 0.0 mm 791 W/m2
13:37 22.2 °C 18.4 °C 1011.1 hPa SSW 8.7 km/h 18.3 km/h 79% 0.0 mm 791 W/m2
13:42 22.4 °C 18.4 °C 1011.1 hPa SSW 9.7 km/h 17.2 km/h 78% 0.0 mm 794 W/m2
13:47 22.4 °C 18.4 °C 1011.1 hPa SSW 7.2 km/h 17.2 km/h 78% 0.0 mm 799 W/m2
13:52 22.3 °C 18.1 °C 1011.1 hPa SSW 8.7 km/h 19.5 km/h 77% 0.0 mm 802 W/m2
13:57 22.6 °C 18.6 °C 1011.1 hPa South 11.1 km/h 19.5 km/h 78% 0.0 mm 810 W/m2
14:02 22.5 °C 18.3 °C 1011.1 hPa SSW 9.7 km/h 15.8 km/h 77% 0.0 mm 801 W/m2
14:07 22.4 °C 18.2 °C 1011.1 hPa SSW 11.1 km/h 15.8 km/h 77% 0.0 mm 785 W/m2
14:12 22.2 °C 18.2 °C 1010.7 hPa SSW 11.1 km/h 15.8 km/h 78% 0.0 mm 665 W/m2
14:17 22.5 °C 18.5 °C 1011.1 hPa South 9.7 km/h 15.8 km/h 78% 0.0 mm 729 W/m2
14:22 22.2 °C 18.2 °C 1010.7 hPa South 11.1 km/h 17.2 km/h 78% 0.0 mm 599 W/m2
14:27 22.2 °C 18.4 °C 1010.7 hPa South 11.1 km/h 17.2 km/h 79% 0.0 mm 758 W/m2
14:32 22.3 °C 18.3 °C 1010.7 hPa SSW 13.4 km/h 18.3 km/h 78% 0.0 mm 514 W/m2
14:37 22.1 °C 18.3 °C 1011.1 hPa SSW 8.7 km/h 18.3 km/h 79% 0.0 mm 591 W/m2
14:42 22.5 °C 18.3 °C 1010.7 hPa SSW 7.2 km/h 18.3 km/h 77% 0.0 mm 411 W/m2
14:48 22.8 °C 18.8 °C 1010.7 hPa South 5.0 km/h 14.8 km/h 78% 0.0 mm 791 W/m2
14:52 23.1 °C 18.9 °C 1010.7 hPa South 6.1 km/h 13.4 km/h 77% 0.0 mm 589 W/m2
14:57 23.1 °C 18.9 °C 1010.7 hPa South 8.7 km/h 15.8 km/h 77% 0.0 mm 566 W/m2
15:02 22.6 °C 18.2 °C 1010.7 hPa South 9.7 km/h 17.2 km/h 76% 0.0 mm 613 W/m2
15:07 22.8 °C 18.6 °C 1010.7 hPa South 14.8 km/h 19.5 km/h 77% 0.0 mm 519 W/m2
15:12 23.0 °C 18.8 °C 1010.7 hPa South 9.7 km/h 19.5 km/h 77% 0.0 mm 647 W/m2
15:17 22.9 °C 18.4 °C 1010.7 hPa South 12.2 km/h 19.5 km/h 76% 0.0 mm 587 W/m2
15:22 22.8 °C 18.6 °C 1010.7 hPa South 12.2 km/h 20.9 km/h 77% 0.0 mm 390 W/m2
15:27 22.5 °C 18.5 °C 1010.7 hPa South 12.2 km/h 20.9 km/h 78% 0.0 mm 346 W/m2
15:32 22.8 °C 19.2 °C 1010.7 hPa SSE 3.5 km/h 17.2 km/h 80% 0.0 mm 369 W/m2
15:37 22.8 °C 18.2 °C 1010.7 hPa South 8.7 km/h 17.2 km/h 75% 0.0 mm 252 W/m2
15:42 22.6 °C 18.6 °C 1010.7 hPa SSE 8.7 km/h 15.8 km/h 78% 0.0 mm 498 W/m2
15:47 22.6 °C 18.4 °C 1010.7 hPa SSE 5.0 km/h 18.3 km/h 77% 0.0 mm 571 W/m2
15:52 23.2 °C 19.2 °C 1010.7 hPa South 12.2 km/h 18.3 km/h 78% 0.0 mm 598 W/m2
15:57 23.3 °C 19.1 °C 1010.4 hPa SSE 5.0 km/h 17.2 km/h 77% 0.0 mm 577 W/m2
16:02 23.1 °C 18.7 °C 1010.7 hPa SSE 11.1 km/h 19.5 km/h 76% 0.0 mm 547 W/m2
16:07 23.0 °C 19.0 °C 1010.7 hPa SSE 11.1 km/h 19.5 km/h 78% 0.0 mm 555 W/m2
16:12 23.0 °C 19.0 °C 1010.7 hPa SSW 11.1 km/h 18.3 km/h 78% 0.0 mm 324 W/m2
16:17 23.0 °C 19.0 °C 1010.7 hPa SSW 7.2 km/h 18.3 km/h 78% 0.0 mm 327 W/m2
16:22 23.3 °C 19.1 °C 1010.7 hPa South 11.1 km/h 18.3 km/h 77% 0.0 mm 372 W/m2
16:27 22.7 °C 18.5 °C 1010.7 hPa South 12.2 km/h 18.3 km/h 77% 0.0 mm 326 W/m2
16:32 22.7 °C 18.9 °C 1010.7 hPa SSW 12.2 km/h 21.9 km/h 79% 0.0 mm 295 W/m2
16:37 22.2 °C 18.4 °C 1011.1 hPa SSW 8.7 km/h 21.9 km/h 79% 0.0 mm 188 W/m2
16:42 21.8 °C 18.6 °C 1011.1 hPa SSW 12.2 km/h 18.3 km/h 82% 0.0 mm 339 W/m2
16:47 21.7 °C 18.5 °C 1011.1 hPa SW 14.8 km/h 18.3 km/h 82% 0.0 mm 273 W/m2
16:52 21.7 °C 18.5 °C 1011.1 hPa SW 12.2 km/h 18.3 km/h 82% 0.0 mm 306 W/m2
16:57 21.7 °C 18.5 °C 1011.1 hPa SSW 13.4 km/h 20.9 km/h 82% 0.0 mm 293 W/m2
17:02 21.5 °C 18.3 °C 1011.4 hPa SSW 13.4 km/h 20.9 km/h 82% 0.0 mm 253 W/m2
17:07 21.2 °C 18.2 °C 1011.4 hPa SSW 13.4 km/h 20.9 km/h 83% 0.0 mm 207 W/m2
17:12 21.1 °C 18.1 °C 1011.7 hPa SSW 13.4 km/h 20.9 km/h 83% 0.0 mm 233 W/m2
17:17 21.1 °C 18.1 °C 1011.7 hPa SW 18.3 km/h 24.5 km/h 83% 0.0 mm 271 W/m2
17:22 21.2 °C 18.2 °C 1011.4 hPa SSW 7.2 km/h 24.5 km/h 83% 0.0 mm 166 W/m2
17:41 20.6 °C 18.0 °C 1011.7 hPa SSW 13.4 km/h 18.3 km/h 85% 0.0 mm 139 W/m2
17:46 20.6 °C 18.0 °C 1011.7 hPa SSW 9.7 km/h 18.3 km/h 85% 0.0 mm 121 W/m2
17:51 20.4 °C 17.8 °C 1012.1 hPa SW 12.2 km/h 18.3 km/h 85% 0.0 mm 93 W/m2
17:56 20.2 °C 17.6 °C 1011.7 hPa SW 11.1 km/h 17.2 km/h 85% 0.0 mm 92 W/m2
18:01 20.1 °C 17.7 °C 1011.7 hPa SW 7.2 km/h 17.2 km/h 86% 0.0 mm 91 W/m2
18:06 20.2 °C 17.8 °C 1011.7 hPa SW 6.1 km/h 15.8 km/h 86% 0.0 mm 82 W/m2
18:11 20.1 °C 17.7 °C 1011.7 hPa SW 11.1 km/h 12.2 km/h 86% 0.0 mm 70 W/m2
18:16 20.0 °C 17.6 °C 1011.7 hPa SSW 6.1 km/h 12.2 km/h 86% 0.0 mm 70 W/m2
18:21 20.0 °C 17.6 °C 1011.7 hPa South 7.2 km/h 13.4 km/h 86% 0.0 mm 70 W/m2
18:26 20.0 °C 17.6 °C 1011.7 hPa South 8.7 km/h 13.4 km/h 86% 0.0 mm 68 W/m2
18:31 19.9 °C 17.7 °C 1011.7 hPa South 6.1 km/h 13.4 km/h 87% 0.0 mm 61 W/m2
18:36 19.8 °C 17.8 °C 1011.7 hPa South 7.2 km/h 13.4 km/h 88% 0.0 mm 59 W/m2
18:41 19.9 °C 17.9 °C 1011.7 hPa South 5.0 km/h 12.2 km/h 88% 0.0 mm 59 W/m2
18:46 20.0 °C 17.8 °C 1012.1 hPa South 7.2 km/h 11.1 km/h 87% 0.0 mm 60 W/m2
18:51 20.0 °C 17.8 °C 1012.1 hPa South 9.7 km/h 12.2 km/h 87% 0.0 mm 58 W/m2
18:56 19.9 °C 17.9 °C 1011.7 hPa South 6.1 km/h 12.2 km/h 88% 0.0 mm 44 W/m2
19:01 19.9 °C 17.9 °C 1012.1 hPa South 5.0 km/h 12.2 km/h 88% 0.0 mm 36 W/m2
19:06 19.8 °C 17.8 °C 1012.1 hPa South 5.0 km/h 9.7 km/h 88% 0.0 mm 21 W/m2
19:11 19.7 °C 17.8 °C 1012.1 hPa South 5.0 km/h 9.7 km/h 89% 0.0 mm 14 W/m2
19:16 19.6 °C 17.8 °C 1012.1 hPa South 2.6 km/h 8.7 km/h 89% 0.0 mm 13 W/m2
19:21 19.6 °C 17.8 °C 1012.1 hPa SSE 1.1 km/h 8.7 km/h 89% 0.0 mm 9 W/m2
19:26 19.5 °C 17.7 °C 1012.1 hPa SSE 3.5 km/h 7.2 km/h 89% 0.0 mm 6 W/m2
19:31 19.4 °C 17.6 °C 1012.1 hPa Calm   7.2 km/h 89% 0.0 mm 4 W/m2
19:36 19.3 °C 17.6 °C 1012.1 hPa Calm   7.2 km/h 90% 0.0 mm 1 W/m2
19:41 19.2 °C 17.6 °C 1012.1 hPa Calm   3.5 km/h 90% 0.0 mm 0 W/m2
19:47 19.1 °C 17.4 °C 1012.4 hPa Calm   3.5 km/h 90% 0.0 mm 0 W/m2
19:52 19.0 °C 17.5 °C 1012.1 hPa Calm     91% 0.0 mm 0 W/m2
19:57 18.9 °C 17.6 °C 1012.1 hPa Calm     92% 0.0 mm 0 W/m2
20:02 18.8 °C 17.5 °C 1012.4 hPa Calm     92% 0.0 mm 0 W/m2
20:07 18.9 °C 17.8 °C 1012.4 hPa Calm     93% 0.0 mm 0 W/m2
20:12 18.9 °C 17.8 °C 1012.4 hPa Calm     93% 0.0 mm 0 W/m2
20:17 18.9 °C 17.8 °C 1012.8 hPa Calm     93% 0.0 mm 0 W/m2
20:22 18.9 °C 17.9 °C 1012.8 hPa Calm     94% 0.0 mm 0 W/m2
20:27 18.9 °C 17.9 °C 1012.8 hPa Calm     94% 0.0 mm 0 W/m2
20:32 18.8 °C 17.8 °C 1013.1 hPa Calm   3.5 km/h 94% 0.0 mm 0 W/m2
20:37 18.8 °C 17.8 °C 1013.1 hPa Calm   3.5 km/h 94% 0.0 mm 0 W/m2
20:42 18.8 °C 17.8 °C 1013.1 hPa Calm   2.6 km/h 94% 0.0 mm 0 W/m2
20:47 18.8 °C 17.8 °C 1013.4 hPa NW 1.1 km/h 3.5 km/h 94% 0.0 mm 0 W/m2
20:52 18.8 °C 18.0 °C 1013.4 hPa NW 1.1 km/h 6.1 km/h 95% 0.0 mm 0 W/m2
20:57 18.7 °C 17.9 °C 1013.4 hPa NW 1.1 km/h 6.1 km/h 95% 0.0 mm 0 W/m2
21:02 18.6 °C 17.8 °C 1013.4 hPa WNW 2.6 km/h 5.0 km/h 95% 0.0 mm 0 W/m2
21:07 18.5 °C 17.7 °C 1013.4 hPa Calm   5.0 km/h 95% 0.0 mm 0 W/m2
21:12 18.3 °C 17.5 °C 1013.8 hPa Calm   5.0 km/h 95% 0.0 mm 0 W/m2
21:17 18.1 °C 17.3 °C 1013.8 hPa Calm     95% 0.0 mm 0 W/m2
21:22 18.0 °C 17.2 °C 1013.8 hPa Calm     95% 0.0 mm 0 W/m2
21:27 17.9 °C 16.9 °C 1013.8 hPa Calm     94% 0.0 mm 0 W/m2
21:32 17.9 °C 16.9 °C 1013.8 hPa Calm     94% 0.0 mm 0 W/m2
21:37 17.8 °C 16.8 °C 1014.1 hPa Calm     94% 0.0 mm 0 W/m2
21:42 17.7 °C 16.9 °C 1013.8 hPa Calm     95% 0.0 mm 0 W/m2
21:47 17.6 °C 16.8 °C 1014.1 hPa Calm     95% 0.0 mm 0 W/m2
21:52 17.5 °C 16.7 °C 1014.1 hPa Calm     95% 0.0 mm 0 W/m2
21:57 17.5 °C 16.7 °C 1013.8 hPa Calm     95% 0.0 mm 0 W/m2
22:02 17.4 °C 16.6 °C 1013.8 hPa Calm     95% 0.0 mm 0 W/m2
22:07 17.3 °C 16.5 °C 1013.8 hPa Calm     95% 0.0 mm 0 W/m2
22:12 17.2 °C 16.4 °C 1013.8 hPa Calm     95% 0.0 mm 0 W/m2
22:17 17.2 °C 16.4 °C 1013.8 hPa North 3.5 km/h 6.1 km/h 95% 0.0 mm 0 W/m2
22:22 17.2 °C 16.6 °C 1013.8 hPa Calm   6.1 km/h 96% 0.0 mm 0 W/m2
22:27 17.1 °C 16.4 °C 1014.1 hPa Calm   3.5 km/h 96% 0.0 mm 0 W/m2
22:32 17.1 °C 16.6 °C 1014.1 hPa Calm   3.5 km/h 97% 0.0 mm 0 W/m2
22:37 16.9 °C 16.6 °C 1014.1 hPa Calm   3.5 km/h 98% 0.0 mm 0 W/m2
22:42 16.8 °C 16.5 °C 1014.1 hPa Calm     98% 0.0 mm 0 W/m2
22:48 16.6 °C 16.3 °C 1014.1 hPa Calm     98% 0.0 mm 0 W/m2
22:53 16.6 °C 16.3 °C 1014.1 hPa Calm     98% 0.0 mm 0 W/m2
22:58 16.4 °C 16.1 °C 1014.1 hPa Calm     98% 0.0 mm 0 W/m2
23:03 16.3 °C 16.0 °C 1014.1 hPa Calm     98% 0.0 mm 0 W/m2
23:08 16.2 °C 15.9 °C 1014.1 hPa Calm     98% 0.0 mm 0 W/m2
23:13 16.2 °C 15.9 °C 1014.1 hPa Calm     98% 0.0 mm 0 W/m2
23:18 16.1 °C 15.8 °C 1014.1 hPa Calm     98% 0.0 mm 0 W/m2
23:23 16.0 °C 15.7 °C 1014.4 hPa Calm     98% 0.0 mm 0 W/m2
23:28 16.0 °C 15.7 °C 1014.1 hPa Calm     98% 0.0 mm 0 W/m2
23:33 15.9 °C 15.8 °C 1014.1 hPa Calm     99% 0.0 mm 0 W/m2
23:38 15.8 °C 15.7 °C 1014.4 hPa Calm     99% 0.0 mm 0 W/m2
23:43 15.8 °C 15.7 °C 1014.1 hPa Calm     99% 0.0 mm 0 W/m2
23:48 15.7 °C 15.6 °C 1014.1 hPa Calm     99% 0.0 mm 0 W/m2
23:53 15.7 °C 15.6 °C 1014.1 hPa Calm     99% 0.0 mm 0 W/m2
23:58 15.6 °C 15.4 °C 1014.4 hPa Calm     99% 0.0 mm 0 W/m2
Northern Hawkes Bay. New Zealand Historic Data
Compliments of Weather Underground - 2.25 mb